TimeEEST,TemperatureF,Dew PointF,Humidity,Sea Level PressureIn,VisibilityMPH,Wind Direction,Wind SpeedMPH,Gust SpeedMPH,PrecipitationIn,Events,Conditions,WindDirDegrees,DateUTC
5:20 AM,53.6,39.2,58,29.98,6.2,ENE,9.2,-,N/A,,Partly Cloudy,60,2012-10-09 02:20:00
5:50 AM,53.6,39.2,58,30.01,6.2,NNE,6.9,-,N/A,,Partly Cloudy,30,2012-10-09 02:50:00
6:20 AM,51.8,41.0,67,30.01,6.2,NNE,5.8,-,N/A,,Partly Cloudy,30,2012-10-09 03:20:00
6:50 AM,51.8,41.0,67,30.01,6.2,NE,5.8,-,N/A,,Partly Cloudy,40,2012-10-09 03:50:00
7:20 AM,50.0,41.0,71,30.01,6.2,NE,6.9,-,N/A,,Partly Cloudy,50,2012-10-09 04:20:00
7:50 AM,51.8,41.0,67,30.01,6.2,ENE,6.9,-,N/A,,Partly Cloudy,60,2012-10-09 04:50:00
8:20 AM,51.8,41.0,67,30.01,6.2,ENE,6.9,-,N/A,,Partly Cloudy,60,2012-10-09 05:20:00
8:50 AM,53.6,41.0,62,30.01,6.2,NE,6.9,-,N/A,,Partly Cloudy,40,2012-10-09 05:50:00
9:20 AM,53.6,41.0,62,30.01,6.2,NE,6.9,-,N/A,,Partly Cloudy,40,2012-10-09 06:20:00
9:50 AM,59.0,41.0,51,30.01,6.2,NE,8.1,-,N/A,,Partly Cloudy,50,2012-10-09 06:50:00
10:20 AM,62.6,44.6,52,30.01,6.2,ENE,10.4,-,N/A,,Scattered Clouds,60,2012-10-09 07:20:00
10:50 AM,62.6,42.8,48,30.01,6.2,ENE,11.5,-,N/A,,Mostly Cloudy,70,2012-10-09 07:50:00
11:20 AM,64.4,44.6,49,30.01,6.2,ENE,10.4,-,N/A,,Scattered Clouds,70,2012-10-09 08:20:00
11:50 AM,64.4,39.2,40,30.01,6.2,ENE,10.4,-,N/A,,Scattered Clouds,70,2012-10-09 08:50:00
12:20 PM,66.2,41.0,40,30.01,6.2,East,10.4,-,N/A,,Scattered Clouds,80,2012-10-09 09:20:00
12:50 PM,66.2,41.0,40,30.01,6.2,East,6.9,-,N/A,,Scattered Clouds,90,2012-10-09 09:50:00
1:20 PM,66.2,41.0,40,29.98,6.2,East,8.1,-,N/A,,Scattered Clouds,100,2012-10-09 10:20:00
1:50 PM,66.2,44.6,46,29.98,6.2,East,4.6,-,N/A,,Mostly Cloudy,100,2012-10-09 10:50:00
2:20 PM,68.0,44.6,43,29.95,6.2,ESE,8.1,-,N/A,,Mostly Cloudy,110,2012-10-09 11:20:00
2:50 PM,66.2,50.0,56,29.95,6.2,ESE,8.1,-,N/A,,Mostly Cloudy,110,2012-10-09 11:50:00
3:20 PM,68.0,50.0,52,29.95,6.2,ESE,5.8,-,N/A,,Mostly Cloudy,120,2012-10-09 12:20:00
3:50 PM,69.8,50.0,49,29.95,6.2,SE,4.6,-,N/A,,Scattered Clouds,130,2012-10-09 12:50:00
4:20 PM,69.8,50.0,49,29.92,6.2,SSE,4.6,-,N/A,,Scattered Clouds,150,2012-10-09 13:20:00
4:50 PM,66.2,50.0,56,29.92,6.2,SSE,4.6,-,N/A,,Scattered Clouds,160,2012-10-09 13:50:00
5:20 PM,66.2,50.0,56,29.92,6.2,SSE,4.6,-,N/A,,Scattered Clouds,160,2012-10-09 14:20:00
5:50 PM,66.2,50.0,56,29.92,6.2,Calm,Calm,-,N/A,,Mostly Cloudy,0,2012-10-09 14:50:00
6:20 PM,64.4,50.0,59,29.92,6.2,Calm,Calm,-,N/A,,Mostly Cloudy,0,2012-10-09 15:20:00
6:50 PM,64.4,51.8,64,29.89,6.2,Calm,Calm,-,N/A,,Mostly Cloudy,0,2012-10-09 15:50:00
7:20 PM,62.6,51.8,68,29.89,6.2,Calm,Calm,-,N/A,,Scattered Clouds,0,2012-10-09 16:20:00
7:50 PM,62.6,53.6,72,29.89,6.2,Calm,Calm,-,N/A,,Scattered Clouds,0,2012-10-09 16:50:00
8:20 PM,60.8,51.8,72,29.89,6.2,Calm,Calm,-,N/A,,Scattered Clouds,0,2012-10-09 17:20:00
8:50 PM,60.8,53.6,77,29.89,6.2,Calm,Calm,-,N/A,,Scattered Clouds,0,2012-10-09 17:50:00
9:20 PM,59.0,53.6,82,29.89,6.2,Calm,Calm,-,N/A,,Partly Cloudy,0,2012-10-09 18:20:00
9:50 PM,59.0,53.6,82,29.89,6.2,Calm,Calm,-,N/A,,Partly Cloudy,0,2012-10-09 18:50:00